This is the latest recevied weather packets stored in our database for station/object AB8Y-13. If no packets are shown the sender has not sent any weather packets the latest 1 day(s).
| Time | Temp. | Humidity | Pressure | Rain* | Wind** | Luminosity | Snow |
|---|---|---|---|---|---|---|---|
| 1778075776 | 8.33° C | 59% | 1013 hPa | 0 mm | - | 580 W/m² | - |
| 1778075169 | 7.78° C | 60% | 1013 hPa | 0 mm | - | 505 W/m² | - |
| 1778074259 | 7.78° C | 59% | 1012.8 hPa | 0 mm | - | 480 W/m² | - |
| 1778073956 | 7.78° C | 61% | 1012.6 hPa | 0 mm | - | 503 W/m² | - |
| 1778071837 | 6.11° C | 64% | 1012.6 hPa | 0 mm | - | 314 W/m² | - |
| 1778071232 | 6.67° C | 64% | 1012.6 hPa | 0 mm | - | 274 W/m² | - |
| 1778069114 | 5° C | 69% | 1011.9 hPa | 0 mm | - | 85 W/m² | - |
| 1778068811 | 5° C | 67% | 1012.1 hPa | 0 mm | - | 131 W/m² | - |
| 1778068207 | 5° C | 68% | 1011.8 hPa | 0 mm | - | 113 W/m² | - |
| 1778066996 | 3.89° C | 75% | 1011.7 hPa | 0 mm | - | 78 W/m² | - |
| 1778066089 | 3.33° C | 80% | 1011.6 hPa | 0 mm | - | 38 W/m² | - |
| 1778064876 | 2.22° C | 84% | 1011.2 hPa | 0 mm | - | 22 W/m² | - |
| 1778062152 | 2.22° C | 87% | 1010.2 hPa | 0 mm | - | 0 W/m² | - |
| 1778061850 | 2.22° C | 88% | 1010.1 hPa | 0 mm | - | 0 W/m² | - |
| 1778061548 | 2.78° C | 87% | 1010.2 hPa | 0 mm | - | 0 W/m² | - |
| 1778060641 | 2.22° C | 88% | 1009.9 hPa | 0 mm | - | 0 W/m² | - |
| 1778060036 | 2.78° C | 86% | 1009.6 hPa | 0 mm | - | 0 W/m² | - |
| 1778057006 | 3.89° C | 85% | 1009.6 hPa | 0 mm | - | 0 W/m² | - |
| 1778056703 | 3.89° C | 84% | 1009.7 hPa | 0 mm | - | 0 W/m² | - |
| 1778056098 | 4.44° C | 85% | 1009.8 hPa | 0 mm | - | 0 W/m² | - |
| 1778055794 | 5° C | 84% | 1009.9 hPa | 0 mm | - | 0 W/m² | - |
| 1778054582 | 4.44° C | 89% | 1009.8 hPa | 0 mm | - | 0 W/m² | - |
| 1778053674 | 5° C | 88% | 1009.6 hPa | 0 mm | - | 0 W/m² | - |
| 1778053069 | 5° C | 87% | 1009.3 hPa | 0 mm | - | 0 W/m² | - |
| 1778052766 | 5° C | 85% | 1009.3 hPa | 0 mm | - | 0 W/m² | - |
* Rain latest hour (hover to see other rain measurements)
** Current wind speed in m/s (hover to see current wind gust speed)